KRAC/RAC METAR and TAF weather

Enter ICAO airport designator
Station Type Date Time Source
KRAC METAR 2022/07/01 01:53 UTC NOAA

KRAC 010153Z AUTO 21010KT 10SM CLR 28/14 A2991 RMK AO2 SLP122 T02830144


Station Type Date Time Source
KRAC Decoded METAR 2022/07/01 01:53 UTC NOAA

BATTEN INTERNATIONAL AIRPORT, WI, United States (KRAC) 42-46N 87-49W 203M
Jun 30, 2022 - 09:53 PM EDT / 2022.07.01 0153 UTC
Wind: from the SSW (210 degrees) at 12 MPH (10 KT):0
Visibility: 10 mile(s):0
Sky conditions: clear
Temperature: 82.9 F (28.3 C)
Dew Point: 57.9 F (14.4 C)
Relative Humidity: 42%
Pressure (altimeter): 29.91 in. Hg (1012 hPa)
ob: KRAC 010153Z AUTO 21010KT 10SM CLR 28/14 A2991 RMK AO2 SLP122 T02830144
cycle: 2

Station Type Date Time Source
KRAC TAF UTC NOAA

Error!

Example: see airport list